Time;durP1;ratioP1;P1;durP2;ratioP2;P2;SDS_P1;SDS_P2;PMS_P1;PMS_P2;Temp;Humidity;BMP_temperature;BMP_pressure;BME280_temperature;BME280_humidity;BME280_pressure;Samples;Min_cycle;Max_cycle;Signal;HPM_P1;HPM_P2
2021/12/29 00:01:54;;;;;;;;;7.33;4.00;;;;;11.83;65.56;100469.69;5040377;28;45367;-53
2021/12/29 00:04:19;;;;;;;;;7.33;3.67;;;;;11.73;64.95;100455.63;5040047;28;46280;-53
2021/12/29 00:06:45;;;;;;;;;5.00;3.00;;;;;11.78;65.51;100471.13;5040061;28;45266;-53
2021/12/29 00:09:10;;;;;;;;;3.67;3.00;;;;;11.79;65.23;100470.97;5040217;28;45451;-54
2021/12/29 00:11:40;;;;;;;;;10.33;3.67;;;;;11.78;65.88;100471.97;5040065;28;45534;-54
2021/12/29 00:14:08;;;;;;;;;4.00;0.00;;;;;11.80;65.41;100483.31;5039925;28;46215;-53
2021/12/29 00:16:35;;;;;;;;;7.67;5.33;;;;;11.81;65.62;100494.81;5039916;28;45322;-51
2021/12/29 00:19:04;;;;;;;;;3.67;2.67;;;;;11.78;65.98;100495.94;5039777;28;45461;-54
2021/12/29 00:21:32;;;;;;;;;7.00;2.00;;;;;11.78;65.73;100487.97;5040274;28;45313;-51
2021/12/29 00:23:59;;;;;;;;;5.67;3.67;;;;;11.77;66.41;100491.63;5039617;28;46377;-50
2021/12/29 00:26:29;;;;;;;;;5.67;3.00;;;;;11.78;66.12;100513.78;5039627;28;45351;-53
2021/12/29 00:28:58;;;;;;;;;6.33;4.00;;;;;11.80;65.78;100528.63;5039768;28;45442;-53
2021/12/29 00:31:24;;;;;;;;;8.67;6.00;;;;;11.81;66.43;100532.94;5040212;28;45464;-54
2021/12/29 00:33:50;;;;;;;;;7.67;2.67;;;;;11.82;66.19;100539.94;5039661;28;46318;-51
2021/12/29 00:36:15;;;;;;;;;7.33;3.67;;;;;11.83;66.61;100538.97;5039641;28;45271;-53
2021/12/29 00:38:42;;;;;;;;;6.33;4.33;;;;;11.84;66.19;100543.34;5021948;28;45353;-53
2021/12/29 00:41:07;;;;;;;;;4.67;2.00;;;;;11.86;66.55;100549.31;5039652;28;45555;-52
2021/12/29 00:43:32;;;;;;;;;7.33;3.00;;;;;11.88;66.44;100549.16;5039285;28;47131;-53
2021/12/29 00:45:58;;;;;;;;;4.33;4.33;;;;;11.87;66.62;100553.66;5039544;28;45364;-53
2021/12/29 00:48:30;;;;;;;;;12.33;4.00;;;;;11.87;66.81;100555.47;5039634;28;45266;-53
2021/12/29 00:50:56;;;;;;;;;7.00;2.67;;;;;11.85;67.19;100549.50;5039763;28;45305;-53
2021/12/29 00:53:21;;;;;;;;;7.67;3.33;;;;;11.80;66.98;100544.63;5039241;28;45244;-53
2021/12/29 00:55:47;;;;;;;;;8.33;4.00;;;;;11.90;66.66;100557.84;5039649;28;45340;-54
2021/12/29 00:58:12;;;;;;;;;11.33;7.33;;;;;11.89;67.18;100557.00;5038571;28;45235;-54
2021/12/29 01:00:40;;;;;;;;;11.33;3.00;;;;;11.88;67.29;100567.81;5039510;28;45361;-53
2021/12/29 01:03:07;;;;;;;;;8.00;3.67;;;;;11.86;67.32;100556.50;5038304;28;45434;-52
2021/12/29 01:05:33;;;;;;;;;4.00;2.67;;;;;11.86;66.92;100552.00;5038002;28;45381;-54
2021/12/29 01:07:58;;;;;;;;;12.33;6.67;;;;;11.84;67.57;100558.47;5039294;28;45432;-54
2021/12/29 01:10:24;;;;;;;;;5.33;3.00;;;;;11.84;67.51;100561.13;5039319;28;45368;-53
2021/12/29 01:13:01;;;;;;;;;6.67;4.67;;;;;11.84;67.82;100553.13;5038575;28;47197;-52
2021/12/29 01:15:33;;;;;;;;;8.00;5.67;;;;;11.82;67.96;100557.78;5038962;28;45317;-52
2021/12/29 01:18:02;;;;;;;;;9.67;3.00;;;;;11.84;67.21;100566.47;5020954;28;45340;-53
2021/12/29 01:20:28;;;;;;;;;12.33;6.00;;;;;11.84;68.11;100562.00;5039095;28;45586;-51
2021/12/29 01:22:57;;;;;;;;;2.33;2.00;;;;;11.85;67.42;100562.81;5038710;28;45357;-54
2021/12/29 01:25:22;;;;;;;;;9.00;6.33;;;;;11.83;68.30;100573.63;5038656;28;45487;-53
2021/12/29 01:27:49;;;;;;;;;7.33;4.33;;;;;11.84;67.94;100579.78;5038737;28;45327;-54
2021/12/29 01:30:14;;;;;;;;;5.67;2.67;;;;;11.83;68.37;100578.13;5039141;28;45304;-52
2021/12/29 01:32:41;;;;;;;;;4.33;3.00;;;;;11.78;68.35;100565.25;5038311;28;46281;-53
2021/12/29 01:35:10;;;;;;;;;6.00;2.67;;;;;11.81;68.27;100564.09;5038834;28;45424;-51
2021/12/29 01:37:36;;;;;;;;;8.33;2.33;;;;;11.82;68.56;100560.44;5038753;28;45238;-52
2021/12/29 01:40:07;;;;;;;;;6.00;3.00;;;;;11.85;68.05;100565.50;5038862;28;45485;-50
2021/12/29 01:42:33;;;;;;;;;5.00;2.67;;;;;11.86;68.25;100567.16;5038438;28;46000;-53
2021/12/29 01:44:58;;;;;;;;;5.33;2.33;;;;;11.85;68.45;100561.00;5038623;28;45202;-52
2021/12/29 01:47:29;;;;;;;;;11.00;5.33;;;;;11.84;68.42;100567.31;5038629;28;45734;-52
2021/12/29 01:49:55;;;;;;;;;4.33;2.67;;;;;11.85;68.54;100563.66;5038961;28;45338;-53
2021/12/29 01:52:25;;;;;;;;;6.67;3.00;;;;;11.86;68.38;100565.31;5038277;28;45332;-51
2021/12/29 01:54:51;;;;;;;;;4.67;2.00;;;;;11.86;68.59;100567.97;5038368;28;45446;-52
2021/12/29 01:57:17;;;;;;;;;8.33;3.00;;;;;11.88;69.13;100568.66;5038593;28;45325;-53
2021/12/29 01:59:43;;;;;;;;;7.00;3.67;;;;;11.90;68.62;100579.16;5038411;28;45383;-54
2021/12/29 02:02:14;;;;;;;;;12.33;3.67;;;;;11.87;68.80;100563.47;5038204;28;46511;-53
2021/12/29 02:04:40;;;;;;;;;6.33;3.33;;;;;11.86;69.00;100575.16;5038182;28;45305;-54
2021/12/29 02:07:05;;;;;;;;;12.00;6.00;;;;;11.88;68.92;100578.47;5038223;28;45458;-53
2021/12/29 02:09:31;;;;;;;;;8.00;2.33;;;;;11.88;68.75;100587.34;5038535;28;45297;-54
2021/12/29 02:11:56;;;;;;;;;11.67;6.67;;;;;11.90;68.66;100592.50;5037794;28;45451;-51
2021/12/29 02:14:22;;;;;;;;;6.67;6.67;;;;;11.89;68.75;100583.66;5037873;28;45381;-54
2021/12/29 02:16:47;;;;;;;;;4.33;3.00;;;;;11.84;68.73;100579.78;5038112;28;45489;-53
2021/12/29 02:19:13;;;;;;;;;3.00;3.00;;;;;11.86;68.95;100583.97;5038025;28;45325;-54
2021/12/29 02:21:42;;;;;;;;;7.33;4.67;;;;;11.87;69.44;100584.81;5036508;28;46406;-54
2021/12/29 02:26:38;;;;;;;;;9.33;1.67;;;;;11.85;69.34;100578.81;5038163;28;45220;-53
2021/12/29 02:29:09;;;;;;;;;13.33;3.00;;;;;11.86;69.17;100581.31;5037994;28;45295;-52
2021/12/29 02:31:36;;;;;;;;;6.33;3.33;;;;;11.86;68.83;100575.16;5037363;28;46270;-52
2021/12/29 02:34:04;;;;;;;;;9.00;5.33;;;;;11.90;69.29;100584.50;5037587;28;45505;-54
2021/12/29 02:36:30;;;;;;;;;1.67;1.67;;;;;11.91;69.08;100588.81;5037930;28;45395;-53
2021/12/29 02:38:56;;;;;;;;;6.67;3.67;;;;;11.91;69.23;100591.50;5037886;28;45444;-52
2021/12/29 02:41:24;;;;;;;;;13.67;5.33;;;;;11.79;69.23;100564.25;5037665;28;47586;-52
2021/12/29 02:43:58;;;;;;;;;6.67;4.00;;;;;11.91;69.54;100583.50;5037359;28;45341;-53
2021/12/29 02:46:24;;;;;;;;;8.67;4.67;;;;;11.93;69.48;100584.19;5037491;28;45540;-53
2021/12/29 02:48:56;;;;;;;;;3.67;3.00;;;;;11.90;69.54;100580.00;5037734;28;45281;-50
2021/12/29 02:51:21;;;;;;;;;8.00;2.00;;;;;11.91;69.31;100570.16;5037129;28;46225;-52
2021/12/29 02:53:47;;;;;;;;;6.67;2.67;;;;;11.89;69.36;100575.66;5037342;28;45184;-51
2021/12/29 02:56:13;;;;;;;;;5.33;1.00;;;;;11.83;69.44;100559.47;5037322;28;45464;-53
2021/12/29 02:58:40;;;;;;;;;10.00;3.67;;;;;11.77;68.96;100558.25;5037366;28;45557;-51
2021/12/29 03:01:09;;;;;;;;;10.00;2.00;;;;;11.87;69.33;100580.31;5037229;28;47018;-50
2021/12/29 03:03:37;;;;;;;;;7.33;6.67;;;;;11.89;69.44;100577.50;5037311;28;45357;-53
2021/12/29 03:06:06;;;;;;;;;2.00;2.00;;;;;11.88;69.31;100584.66;5037214;28;45261;-52
2021/12/29 03:08:33;;;;;;;;;3.67;3.00;;;;;11.89;69.82;100577.50;5037302;28;45420;-51
2021/12/29 03:10:59;;;;;;;;;1.67;1.67;;;;;11.78;69.40;100556.41;5037091;28;45473;-51
2021/12/29 03:13:28;;;;;;;;;1.67;1.67;;;;;11.86;69.77;100572.47;5036719;28;45338;-53
2021/12/29 03:15:55;;;;;;;;;15.67;3.33;;;;;11.87;69.64;100579.47;5037263;28;45389;-52
2021/12/29 03:18:21;;;;;;;;;6.67;3.00;;;;;11.86;69.98;100570.66;5037394;28;45494;-52
2021/12/29 03:20:47;;;;;;;;;9.33;3.33;;;;;11.88;70.20;100578.47;5036845;28;46115;-50
2021/12/29 03:23:14;;;;;;;;;11.00;5.00;;;;;11.87;70.08;100574.16;5037043;28;45354;-52
2021/12/29 03:25:40;;;;;;;;;6.67;4.00;;;;;11.87;69.69;100574.16;5036958;28;45434;-53
2021/12/29 03:28:05;;;;;;;;;6.33;2.00;;;;;11.83;69.89;100570.94;5036456;28;45284;-53
2021/12/29 03:30:35;;;;;;;;;6.33;3.00;;;;;11.83;70.66;100565.63;5036894;28;46364;-53
2021/12/29 03:33:03;;;;;;;;;2.00;2.00;;;;;11.78;70.81;100572.41;5036853;28;45343;-50
2021/12/29 03:35:39;;;;;;;;;4.67;2.00;;;;;11.80;70.83;100589.06;5036901;28;45463;-52
2021/12/29 03:38:07;;;;;;;;;3.00;1.33;;;;;11.77;70.78;100589.41;5037162;28;45333;-51
2021/12/29 03:40:35;;;;;;;;;6.00;6.00;;;;;11.77;70.70;100584.91;5036684;28;46058;-53
2021/12/29 03:43:02;;;;;;;;;6.33;2.00;;;;;11.72;70.21;100563.22;5036592;28;45311;-49
2021/12/29 03:45:27;;;;;;;;;6.67;2.67;;;;;11.69;70.82;100571.53;5036772;28;45827;-51
2021/12/29 03:47:52;;;;;;;;;6.00;3.00;;;;;11.71;71.28;100577.53;5036923;28;45289;-52
2021/12/29 03:50:18;;;;;;;;;7.67;6.00;;;;;11.72;71.32;100571.22;5036850;28;45509;-52
2021/12/29 03:52:44;;;;;;;;;3.00;3.00;;;;;11.73;71.32;100573.72;5036413;28;45396;-53
2021/12/29 03:55:10;;;;;;;;;2.33;1.00;;;;;11.73;71.23;100573.72;5036670;28;45323;-50
2021/12/29 03:57:35;;;;;;;;;6.67;4.00;;;;;11.71;71.69;100570.38;5036935;28;45330;-51
2021/12/29 04:00:04;;;;;;;;;4.67;3.33;;;;;11.71;71.53;100562.41;5036295;28;45320;-53
2021/12/29 04:02:29;;;;;;;;;8.00;5.33;;;;;11.74;71.19;100569.22;5036561;28;45356;-51
2021/12/29 04:04:55;;;;;;;;;7.00;4.00;;;;;11.71;71.87;100562.41;5036513;28;45281;-50
2021/12/29 04:07:20;;;;;;;;;7.00;4.00;;;;;11.69;71.46;100553.72;5035422;28;45396;-54
2021/12/29 04:09:46;;;;;;;;;2.00;2.00;;;;;11.68;71.78;100557.38;5036360;28;46116;-54
2021/12/29 04:12:11;;;;;;;;;8.67;3.00;;;;;11.37;71.85;100508.22;5036353;28;45475;-53
2021/12/29 04:14:37;;;;;;;;;3.67;3.67;;;;;11.64;71.17;100549.84;5018707;28;45400;-53
2021/12/29 04:17:09;;;;;;;;;9.00;2.33;;;;;11.64;72.08;100563.19;5036580;28;45449;-53
2021/12/29 04:22:19;;;;;;;;;2.67;1.67;;;;;11.63;72.47;100567.69;5036313;28;45359;-53
2021/12/29 04:24:45;;;;;;;;;5.67;3.00;;;;;11.62;71.98;100565.16;5036401;28;45227;-53
2021/12/29 04:27:10;;;;;;;;;2.67;1.00;;;;;11.60;72.85;100561.81;5036642;28;45245;-53
2021/12/29 04:29:35;;;;;;;;;2.67;2.67;;;;;11.58;73.39;100561.97;5036127;28;45358;-53
2021/12/29 04:32:01;;;;;;;;;1.00;1.00;;;;;11.56;72.04;100560.47;5036109;28;45479;-52
2021/12/29 04:34:26;;;;;;;;;6.00;3.33;;;;;11.49;73.15;100566.41;5036397;28;45434;-54
2021/12/29 04:36:51;;;;;;;;;1.00;1.00;;;;;11.41;73.60;100555.69;5036430;28;45401;-54
2021/12/29 04:39:17;;;;;;;;;1.67;1.33;;;;;11.49;73.50;100568.25;5036448;28;45436;-52
2021/12/29 04:41:42;;;;;;;;;2.00;2.00;;;;;11.49;74.36;100570.91;5039635;28;45421;-52
2021/12/29 04:44:08;;;;;;;;;6.67;2.67;;;;;11.47;73.97;100573.72;5039791;28;45337;-54
2021/12/29 04:46:44;;;;;;;;;4.67;2.00;;;;;11.43;75.04;100567.03;5039638;28;45377;-53
2021/12/29 04:49:12;;;;;;;;;5.00;2.00;;;;;11.35;75.40;100544.84;5039266;28;47242;-54
2021/12/29 04:51:46;;;;;;;;;2.00;2.00;;;;;11.39;74.34;100557.69;5039276;28;45368;-53
2021/12/29 04:54:12;;;;;;;;;4.67;3.00;;;;;11.39;76.03;100551.53;5039358;28;45362;-53
2021/12/29 04:56:37;;;;;;;;;7.00;2.00;;;;;11.36;75.53;100554.50;5039492;28;45303;-53
2021/12/29 04:59:03;;;;;;;;;5.33;2.33;;;;;11.35;75.53;100551.00;5039256;28;47345;-54
2021/12/29 05:01:29;;;;;;;;;3.67;2.00;;;;;11.32;76.14;100547.81;5038977;28;45298;-53
2021/12/29 05:03:55;;;;;;;;;3.67;2.00;;;;;11.33;76.19;100541.50;5039311;28;45223;-52
2021/12/29 05:09:05;;;;;;;;;1.33;1.00;;;;;11.31;76.29;100536.34;5038992;28;45835;-53
2021/12/29 05:11:31;;;;;;;;;3.00;2.00;;;;;11.30;76.60;100539.16;5038746;28;45394;-53
2021/12/29 05:13:56;;;;;;;;;2.33;1.67;;;;;11.29;76.47;100542.78;5039084;28;45707;-53
2021/12/29 05:16:27;;;;;;;;;3.00;2.00;;;;;11.30;75.86;100542.66;5039091;28;45504;-50
2021/12/29 05:18:54;;;;;;;;;1.00;1.00;;;;;11.27;76.57;100529.66;5044737;28;47117;-50
2021/12/29 05:21:20;;;;;;;;;10.67;5.00;;;;;11.26;76.82;100530.66;5038292;28;45310;-49
2021/12/29 05:23:45;;;;;;;;;2.67;2.00;;;;;11.26;77.21;100530.66;5038738;28;45214;-52
2021/12/29 05:26:11;;;;;;;;;3.00;2.00;;;;;11.25;77.39;100523.66;5039041;28;45544;-51
2021/12/29 05:28:36;;;;;;;;;2.00;2.00;;;;;11.09;75.96;100505.75;5038588;28;45460;-52
2021/12/29 05:31:02;;;;;;;;;12.00;2.33;;;;;11.17;77.71;100515.63;5038679;28;45381;-52
2021/12/29 05:33:27;;;;;;;;;6.67;4.00;;;;;11.15;77.81;100518.41;5038831;28;45411;-52
2021/12/29 05:35:52;;;;;;;;;6.00;5.00;;;;;11.14;78.12;100523.91;5039063;28;45396;-51
2021/12/29 05:38:18;;;;;;;;;3.33;2.33;;;;;11.13;78.05;100523.06;5038611;28;45436;-52
2021/12/29 05:40:44;;;;;;;;;3.67;3.00;;;;;11.10;78.92;100517.22;5038828;28;45295;-50
2021/12/29 05:43:09;;;;;;;;;3.00;3.00;;;;;11.07;79.32;100512.19;5037420;28;45759;-52
2021/12/29 05:45:34;;;;;;;;;4.33;2.67;;;;;11.06;78.01;100515.84;5038722;28;45511;-49
2021/12/29 05:48:01;;;;;;;;;4.00;3.33;;;;;10.97;79.90;100504.31;5038567;28;45394;-52
2021/12/29 05:50:28;;;;;;;;;5.00;4.00;;;;;11.04;78.82;100516.03;5038139;28;45322;-53
2021/12/29 05:52:56;;;;;;;;;6.67;5.00;;;;;11.00;80.00;100512.00;5037068;28;45404;-51
2021/12/29 05:55:22;;;;;;;;;8.67;5.33;;;;;11.02;79.77;100503.84;5038714;28;45506;-51
2021/12/29 05:57:47;;;;;;;;;8.00;5.00;;;;;11.01;79.98;100497.69;5038060;28;46114;-54
2021/12/29 06:00:17;;;;;;;;;8.67;5.67;;;;;10.98;80.10;100501.50;5038020;28;45538;-54
2021/12/29 06:02:42;;;;;;;;;5.33;4.33;;;;;10.97;80.99;100497.16;5038774;28;45305;-52
2021/12/29 06:05:08;;;;;;;;;6.33;4.00;;;;;10.95;80.92;100499.13;5038572;28;45279;-53
2021/12/29 06:07:35;;;;;;;;;10.33;5.00;;;;;10.88;81.41;100507.91;5038042;28;47258;-53
2021/12/29 06:10:01;;;;;;;;;5.00;5.00;;;;;10.89;81.23;100502.44;5038036;28;45246;-53
2021/12/29 06:12:26;;;;;;;;;7.00;5.00;;;;;10.90;80.98;100492.63;5038201;28;45387;-54
2021/12/29 06:14:52;;;;;;;;;6.33;6.33;;;;;10.85;81.88;100482.44;5038565;28;45416;-52
2021/12/29 06:17:18;;;;;;;;;11.00;7.00;;;;;10.85;80.56;100494.91;5037652;28;45369;-51
2021/12/29 06:19:43;;;;;;;;;6.00;3.33;;;;;10.88;79.39;100489.28;5037647;28;45503;-52
2021/12/29 06:22:10;;;;;;;;;7.00;6.00;;;;;10.76;82.20;100483.38;5038163;28;45326;-53
2021/12/29 06:24:38;;;;;;;;;6.33;4.33;;;;;10.87;82.10;100500.91;5038101;28;45390;-53
2021/12/29 06:27:03;;;;;;;;;6.00;6.00;;;;;10.88;82.01;100507.91;5037778;28;45311;-51
2021/12/29 06:29:28;;;;;;;;;8.00;8.00;;;;;10.90;81.73;100501.44;5037708;28;45342;-48
2021/12/29 06:31:54;;;;;;;;;7.67;6.00;;;;;10.92;81.17;100498.63;5037715;28;45654;-49
2021/12/29 06:34:20;;;;;;;;;5.00;5.00;;;;;10.90;81.67;100500.59;5038033;28;45444;-52
2021/12/29 06:36:45;;;;;;;;;7.00;7.00;;;;;10.89;82.28;100505.09;5037498;28;45404;-50
2021/12/29 06:39:11;;;;;;;;;5.33;1.00;;;;;10.83;82.61;100499.53;5037899;28;45275;-50
2021/12/29 06:41:36;;;;;;;;;5.33;3.00;;;;;10.86;82.08;100509.88;5037763;28;45222;-49
2021/12/29 06:44:02;;;;;;;;;8.00;3.00;;;;;10.82;80.25;100495.22;5038111;28;45367;-50
2021/12/29 06:46:28;;;;;;;;;13.67;7.00;;;;;10.85;81.57;100502.88;5037330;28;46118;-53
2021/12/29 06:48:53;;;;;;;;;6.00;3.67;;;;;10.83;82.67;100499.53;5037486;28;45479;-51
2021/12/29 06:51:18;;;;;;;;;11.00;7.00;;;;;10.82;83.05;100506.69;5037685;28;45573;-49
2021/12/29 06:53:44;;;;;;;;;8.00;5.00;;;;;10.78;82.78;100504.50;5037609;28;45463;-51
2021/12/29 06:56:10;;;;;;;;;2.00;1.00;;;;;10.76;83.39;100501.16;5037388;28;46381;-51
2021/12/29 06:58:35;;;;;;;;;8.33;7.00;;;;;10.77;83.54;100511.63;5037466;28;45489;-51
2021/12/29 07:01:00;;;;;;;;;4.67;4.67;;;;;10.78;82.59;100501.81;5037384;28;45347;-51
2021/12/29 07:03:26;;;;;;;;;6.67;6.67;;;;;10.76;83.13;100488.69;5036793;28;45422;-51
2021/12/29 07:05:54;;;;;;;;;5.00;5.00;;;;;10.82;83.11;100501.38;5037153;28;46213;-53
2021/12/29 07:08:20;;;;;;;;;6.00;6.00;;;;;10.84;82.74;100501.22;5037389;28;45313;-53
2021/12/29 07:10:45;;;;;;;;;4.00;4.00;;;;;10.83;82.21;100504.84;5037491;28;45818;-51
2021/12/29 07:13:11;;;;;;;;;3.00;3.00;;;;;10.83;82.45;100496.88;5037318;28;45211;-53
2021/12/29 07:15:36;;;;;;;;;5.33;5.00;;;;;10.83;83.68;100502.19;5036965;28;45957;-51
2021/12/29 07:18:03;;;;;;;;;10.33;6.00;;;;;10.81;82.86;100501.53;5036871;28;45350;-52
2021/12/29 07:20:28;;;;;;;;;6.00;5.00;;;;;10.82;83.17;100503.19;5037491;28;45428;-51
2021/12/29 07:22:53;;;;;;;;;6.00;6.00;;;;;10.78;82.33;100485.84;5037443;28;45377;-53
2021/12/29 07:25:19;;;;;;;;;3.67;3.67;;;;;10.80;83.52;100495.38;5036984;28;47013;-53
2021/12/29 07:27:44;;;;;;;;;4.67;4.33;;;;;10.87;82.30;100498.22;5036940;28;45263;-50
2021/12/29 07:30:11;;;;;;;;;5.33;5.33;;;;;10.87;82.25;100498.22;5037131;28;45412;-50
2021/12/29 07:32:37;;;;;;;;;7.33;5.00;;;;;10.83;83.63;100495.06;5036932;28;45397;-52
2021/12/29 07:35:02;;;;;;;;;8.67;6.00;;;;;10.85;83.03;100502.88;5036847;28;45990;-53
2021/12/29 07:37:28;;;;;;;;;6.00;6.00;;;;;10.84;83.70;100502.06;5036801;28;45614;-52
2021/12/29 07:39:53;;;;;;;;;6.33;5.33;;;;;10.85;83.19;100502.88;5036814;28;45273;-53
2021/12/29 07:42:19;;;;;;;;;8.00;5.67;;;;;10.84;83.79;100502.06;5037249;28;45282;-52
2021/12/29 07:44:46;;;;;;;;;8.00;6.00;;;;;10.88;84.06;100505.25;5036623;28;46148;-52
2021/12/29 07:47:13;;;;;;;;;6.33;6.00;;;;;10.90;83.86;100511.25;5036708;28;45388;-51
2021/12/29 07:49:39;;;;;;;;;8.00;6.33;;;;;10.89;83.31;100512.25;5036724;28;45493;-52
2021/12/29 07:52:04;;;;;;;;;6.00;6.00;;;;;10.91;82.65;100515.56;5036826;28;45257;-52
2021/12/29 07:54:30;;;;;;;;;6.00;6.00;;;;;10.89;83.59;100522.88;5036717;28;45931;-53
2021/12/29 07:56:55;;;;;;;;;17.67;13.00;;;;;10.87;83.98;100523.03;5036354;28;45333;-53
2021/12/29 07:59:21;;;;;;;;;23.33;18.00;;;;;10.89;84.12;100514.91;5036698;28;45452;-53
2021/12/29 08:01:46;;;;;;;;;24.33;13.67;;;;;10.94;83.43;100510.78;5036423;28;45445;-51
2021/12/29 08:04:19;;;;;;;;;4.67;3.00;;;;;10.92;83.63;100519.91;5036502;28;46832;-53
2021/12/29 08:06:45;;;;;;;;;7.00;7.00;;;;;10.96;83.89;100531.94;5035929;28;45424;-53
2021/12/29 08:09:11;;;;;;;;;6.33;6.00;;;;;10.97;83.95;100525.63;5036486;28;45303;-52
2021/12/29 08:11:38;;;;;;;;;8.00;8.00;;;;;10.98;83.88;100532.59;5036697;28;45458;-53
2021/12/29 08:14:04;;;;;;;;;11.00;8.00;;;;;11.03;83.01;100524.97;5037863;28;45286;-54
2021/12/29 08:16:29;;;;;;;;;13.33;10.33;;;;;11.02;83.50;100531.31;5039819;28;45226;-54
2021/12/29 08:18:55;;;;;;;;;11.00;8.00;;;;;11.05;83.45;100530.16;5039829;28;45467;-54
2021/12/29 08:21:20;;;;;;;;;11.33;8.67;;;;;11.05;83.20;100546.97;5040310;28;45243;-54
2021/12/29 08:23:45;;;;;;;;;10.00;7.00;;;;;10.99;84.67;100544.91;5039860;28;46039;-52
2021/12/29 08:26:11;;;;;;;;;10.67;8.00;;;;;10.96;83.51;100535.44;5039810;28;45318;-52
2021/12/29 08:28:36;;;;;;;;;6.67;6.00;;;;;11.01;83.10;100550.94;5039854;28;45204;-52
2021/12/29 08:31:04;;;;;;;;;6.00;6.00;;;;;11.02;83.14;100552.59;5040173;28;45326;-52
2021/12/29 08:33:29;;;;;;;;;8.67;8.67;;;;;11.05;84.53;100552.28;5039359;28;47126;-52
2021/12/29 08:35:55;;;;;;;;;7.00;7.00;;;;;11.10;83.90;100570.47;5039545;28;45499;-55
2021/12/29 08:38:21;;;;;;;;;13.50;11.50;;;;;11.11;83.77;100550.81;5039819;28;45373;-52
2021/12/29 08:40:46;;;;;;;;;9.00;8.00;;;;;11.12;84.28;100566.63;5039746;28;45449;-53
2021/12/29 08:43:14;;;;;;;;;11.00;9.00;;;;;11.06;84.45;100543.31;5039539;28;46297;-54
2021/12/29 08:45:42;;;;;;;;;11.67;8.33;;;;;11.15;85.10;100553.03;5039431;28;45172;-53
2021/12/29 08:48:09;;;;;;;;;10.67;9.33;;;;;11.19;84.33;100554.38;5039515;28;45387;-50
2021/12/29 08:50:34;;;;;;;;;16.00;12.33;;;;;11.09;85.21;100535.03;5039627;28;45598;-51
2021/12/29 08:53:02;;;;;;;;;10.67;10.67;;;;;11.21;84.33;100540.94;5039102;28;45396;-52
2021/12/29 08:55:29;;;;;;;;;11.00;10.00;;;;;11.26;84.13;100537.81;5039411;28;45297;-50
2021/12/29 08:57:55;;;;;;;;;17.00;9.00;;;;;11.20;84.60;100536.59;5039222;28;45719;-50
2021/12/29 09:00:20;;;;;;;;;13.00;13.00;;;;;11.33;83.71;100542.31;5039454;28;45350;-52
2021/12/29 09:02:46;;;;;;;;;18.00;13.00;;;;;11.34;84.52;100560.00;5038870;28;46344;-52
2021/12/29 09:05:13;;;;;;;;;16.00;16.00;;;;;11.36;84.55;100559.84;5039076;28;45284;-52
2021/12/29 09:07:40;;;;;;;;;25.33;22.00;;;;;11.41;84.73;100542.38;5039389;28;45408;-52
2021/12/29 09:10:07;;;;;;;;;31.00;25.33;;;;;11.37;84.50;100532.19;5039104;28;45408;-54
2021/12/29 09:12:33;;;;;;;;;16.33;13.00;;;;;11.44;85.14;100555.38;5038747;28;45449;-51
2021/12/29 09:14:58;;;;;;;;;18.33;13.00;;;;;11.52;84.15;100543.97;5039127;28;45321;-52
2021/12/29 09:17:24;;;;;;;;;12.33;11.67;;;;;11.53;84.72;100544.78;5039107;28;45261;-53
2021/12/29 09:19:50;;;;;;;;;17.33;12.00;;;;;11.50;84.83;100535.28;5039073;28;45405;-53
2021/12/29 09:22:16;;;;;;;;;11.33;9.33;;;;;11.59;84.24;100542.34;5020983;28;46857;-52
2021/12/29 09:24:43;;;;;;;;;13.00;12.00;;;;;11.62;84.30;100531.34;5020442;28;45421;-53
2021/12/29 09:27:09;;;;;;;;;15.00;11.00;;;;;11.64;84.53;100526.72;5037795;28;45481;-51
2021/12/29 09:29:34;;;;;;;;;13.00;12.00;;;;;11.73;84.77;100533.75;5038953;28;45436;-54
2021/12/29 09:32:01;;;;;;;;;14.33;8.00;;;;;11.67;84.27;100530.88;5038665;28;46024;-54
2021/12/29 09:34:27;;;;;;;;;13.33;10.33;;;;;11.82;84.13;100539.94;5038659;28;46270;-56
2021/12/29 09:36:52;;;;;;;;;11.67;8.67;;;;;11.86;84.28;100553.81;5038813;28;45247;-52
2021/12/29 09:39:18;;;;;;;;;12.33;9.33;;;;;11.88;84.98;100541.16;5039191;28;45276;-54
2021/12/29 09:41:43;;;;;;;;;14.33;11.00;;;;;11.93;84.13;100534.38;5038577;28;46464;-52
2021/12/29 09:44:10;;;;;;;;;14.00;9.00;;;;;12.01;84.37;100535.38;5038384;28;45199;-52
2021/12/29 09:46:37;;;;;;;;;16.33;12.00;;;;;12.06;84.66;100536.59;5038679;28;45280;-51
2021/12/29 09:49:03;;;;;;;;;12.67;11.33;;;;;12.12;84.44;100537.75;5038427;28;45404;-52
2021/12/29 09:51:28;;;;;;;;;15.33;11.33;;;;;12.17;84.39;100533.59;5038022;28;46650;-51
2021/12/29 09:53:54;;;;;;;;;13.33;8.00;;;;;12.23;84.27;100527.63;5038246;28;45457;-55
2021/12/29 09:56:19;;;;;;;;;14.00;10.67;;;;;12.24;84.78;100521.28;5038592;28;45404;-54
2021/12/29 09:58:45;;;;;;;;;14.33;10.00;;;;;12.27;84.37;100529.97;5038793;28;45357;-53
2021/12/29 10:01:11;;;;;;;;;14.00;14.00;;;;;12.39;84.75;100536.69;5038306;28;45489;-52
2021/12/29 10:03:37;;;;;;;;;14.00;12.00;;;;;12.43;83.94;100536.19;5038190;28;45475;-54
2021/12/29 10:06:06;;;;;;;;;14.00;12.67;;;;;12.48;84.18;100533.84;5038150;28;45357;-52
2021/12/29 10:08:34;;;;;;;;;14.00;10.00;;;;;12.53;84.62;100537.88;5038414;28;45369;-52
2021/12/29 10:11:06;;;;;;;;;11.00;8.33;;;;;12.57;83.74;100529.38;5038199;28;45360;-50
2021/12/29 10:13:35;;;;;;;;;16.67;10.00;;;;;12.63;84.29;100531.34;5037970;28;45448;-53
2021/12/29 10:16:06;;;;;;;;;18.00;11.67;;;;;12.69;83.82;100536.06;5038015;28;45345;-52
2021/12/29 10:18:34;;;;;;;;;12.33;9.00;;;;;12.71;84.00;100534.03;5038173;28;45501;-53
2021/12/29 10:21:08;;;;;;;;;14.00;13.00;;;;;12.73;83.39;100526.72;5037996;28;46351;-52
2021/12/29 10:23:41;;;;;;;;;12.33;12.33;;;;;12.74;83.47;100546.22;5037612;28;45370;-53
2021/12/29 10:26:08;;;;;;;;;11.67;9.00;;;;;12.79;83.39;100553.75;5038003;28;45352;-53
2021/12/29 10:28:36;;;;;;;;;14.67;11.00;;;;;12.80;83.54;100540.22;5038346;28;45397;-53
2021/12/29 10:31:13;;;;;;;;;22.33;13.67;;;;;12.77;83.71;100545.91;5037650;28;46221;-53
2021/12/29 10:33:42;;;;;;;;;13.67;13.00;;;;;12.79;83.52;100543.06;5037651;28;45184;-52
2021/12/29 10:36:20;;;;;;;;;12.00;11.67;;;;;12.81;83.31;100546.38;5037905;28;45464;-53
2021/12/29 10:39:08;;;;;;;;;16.67;11.33;;;;;12.83;84.90;100550.56;5037992;28;45456;-53
2021/12/29 10:42:07;;;;;;;;;8.33;7.00;;;;;12.91;84.87;100557.75;5037017;28;46277;-54
2021/12/29 10:44:35;;;;;;;;;8.33;8.33;;;;;12.94;84.78;100544.09;4937148;28;45479;-51
2021/12/29 10:47:12;;;;;;;;;10.00;7.00;;;;;12.97;85.19;100541.88;4937207;28;45541;-53
2021/12/29 10:49:55;;;;;;;;;7.67;6.00;;;;;13.01;85.00;100558.41;4937255;28;45319;-53
2021/12/29 10:52:34;;;;;;;;;7.67;6.00;;;;;13.06;85.24;100565.91;4936959;28;47417;-54
2021/12/29 10:55:00;;;;;;;;;4.67;4.67;;;;;13.09;85.48;100544.22;4937197;28;45362;-50
2021/12/29 10:57:26;;;;;;;;;8.00;6.00;;;;;13.14;85.15;100561.41;4937245;28;45308;-52
2021/12/29 10:59:58;;;;;;;;;6.67;4.00;;;;;13.19;85.58;100563.59;4921269;28;45574;-57
2021/12/29 11:02:32;;;;;;;;;2.00;2.00;;;;;13.24;85.06;100563.97;4936769;28;46249;-53
2021/12/29 11:05:00;;;;;;;;;10.00;7.00;;;;;13.30;85.38;100567.78;4936758;28;45232;-54
2021/12/29 11:07:28;;;;;;;;;7.00;4.67;;;;;13.33;85.69;100567.47;4936868;28;45378;-54
2021/12/29 11:09:55;;;;;;;;;3.00;3.00;;;;;13.35;85.96;100566.25;4937129;28;45385;-52
2021/12/29 11:12:23;;;;;;;;;4.00;4.00;;;;;13.36;86.10;100557.28;4920340;28;46115;-52
2021/12/29 11:14:53;;;;;;;;;8.67;3.00;;;;;13.44;86.48;100572.44;4936673;28;45410;-53
2021/12/29 11:17:26;;;;;;;;;3.33;3.33;;;;;13.51;86.44;100570.75;4936818;28;45379;-52
2021/12/29 11:19:57;;;;;;;;;4.00;4.00;;;;;13.57;86.05;100567.41;4960641;28;45515;-52
2021/12/29 11:22:26;;;;;;;;;8.33;7.33;;;;;13.65;85.99;100571.88;5036882;28;45341;-54
2021/12/29 11:24:58;;;;;;;;;4.67;3.33;;;;;13.63;86.40;100553.34;5036843;28;45214;-53
2021/12/29 11:27:25;;;;;;;;;3.67;3.00;;;;;13.80;86.55;100578.22;5037080;28;45372;-53
2021/12/29 11:30:05;;;;;;;;;7.00;7.00;;;;;13.77;86.16;100561.66;5037174;28;45470;-52